createdAt,value
2019-03-31T00:01:16.068Z,100527.61
2019-03-31T00:04:19.974Z,100530.11
2019-03-31T00:07:23.745Z,100530.85
2019-03-31T00:10:27.470Z,100531.33
2019-03-31T00:13:32.605Z,100531.09
2019-03-31T00:16:36.334Z,100536.54
2019-03-31T00:19:40.388Z,100537.11
2019-03-31T00:22:44.105Z,100533.91
2019-03-31T00:25:50.997Z,100534.06
2019-03-31T00:28:54.702Z,100526.69
2019-03-31T00:31:58.805Z,100526.54
2019-03-31T00:35:02.600Z,100527.95
2019-03-31T00:38:06.344Z,100531.17
2019-03-31T00:41:10.096Z,100530.22
2019-03-31T00:44:13.810Z,100527.17
2019-03-31T00:47:17.538Z,100530.77
2019-03-31T00:50:21.350Z,100531.24
2019-03-31T00:53:25.072Z,100528.84
2019-03-31T00:56:29.159Z,100529.19
2019-03-31T00:59:32.878Z,100541.23
2019-03-31T01:02:36.711Z,100535.70
2019-03-31T01:05:42.844Z,100545.03
2019-03-31T01:08:47.560Z,100544.84
2019-03-31T01:11:51.573Z,100531.26
2019-03-31T01:14:55.622Z,100538.09
2019-03-31T01:18:00.571Z,100546.27
2019-03-31T01:21:04.738Z,100544.28
2019-03-31T01:24:10.388Z,100551.61
2019-03-31T01:27:15.631Z,100557.36
2019-03-31T01:30:20.257Z,100558.22
2019-03-31T01:33:24.590Z,100557.34
2019-03-31T01:36:28.427Z,100555.50
2019-03-31T01:39:34.250Z,100555.13
2019-03-31T01:42:38.681Z,100558.69
2019-03-31T01:45:42.831Z,100555.95
2019-03-31T01:48:47.306Z,100565.73
2019-03-31T01:51:51.476Z,100567.95
2019-03-31T01:54:55.212Z,100565.29
2019-03-31T01:57:59.018Z,100566.14
2019-03-31T02:01:04.579Z,100566.72
2019-03-31T02:04:09.451Z,100566.48
2019-03-31T02:07:14.192Z,100558.05
2019-03-31T02:10:17.921Z,100559.77
2019-03-31T02:13:22.064Z,100562.31
2019-03-31T02:16:25.884Z,100567.69
2019-03-31T02:19:30.814Z,100570.72
2019-03-31T02:22:34.520Z,100560.99
2019-03-31T02:25:38.694Z,100558.27
2019-03-31T02:28:42.746Z,100565.34
2019-03-31T02:31:46.598Z,100564.77
2019-03-31T02:34:50.306Z,100568.33
2019-03-31T02:37:54.044Z,100572.77
2019-03-31T02:40:57.811Z,100564.17
2019-03-31T02:44:01.986Z,100569.36
2019-03-31T02:47:06.058Z,100570.62
2019-03-31T02:50:13.784Z,100568.75
2019-03-31T02:53:19.299Z,100568.41
2019-03-31T02:56:24.221Z,100569.22
2019-03-31T02:59:31.981Z,100574.27
2019-03-31T03:02:42.316Z,100571.50
2019-03-31T03:05:46.562Z,100570.47
2019-03-31T03:08:53.009Z,100577.24
2019-03-31T03:11:59.698Z,100575.35
2019-03-31T03:15:04.623Z,100577.17
2019-03-31T03:18:08.349Z,100583.17
2019-03-31T03:21:12.336Z,100579.26
2019-03-31T03:24:16.444Z,100581.34
2019-03-31T03:27:20.180Z,100581.00
2019-03-31T03:30:25.103Z,100569.98
2019-03-31T03:33:29.334Z,100576.72
2019-03-31T03:36:33.471Z,100575.26
2019-03-31T03:39:38.181Z,100575.30
2019-03-31T03:42:42.244Z,100578.96
2019-03-31T03:45:47.165Z,100581.56
2019-03-31T03:48:50.910Z,100583.22
2019-03-31T03:51:55.462Z,100593.13
2019-03-31T03:54:59.165Z,100591.20
2019-03-31T03:58:02.909Z,100591.26
2019-03-31T04:01:18.489Z,100591.77
2019-03-31T04:04:22.565Z,100600.90
2019-03-31T04:07:26.400Z,100601.56
2019-03-31T04:11:15.101Z,100599.89
2019-03-31T04:14:18.806Z,100608.19
2019-03-31T04:17:22.965Z,100607.45
2019-03-31T04:20:27.113Z,100613.13
2019-03-31T04:23:31.248Z,100614.44
2019-03-31T04:26:35.342Z,100613.66
2019-03-31T04:29:39.091Z,100619.61
2019-03-31T04:32:42.822Z,100632.06
2019-03-31T04:35:46.853Z,100628.02
2019-03-31T04:38:50.609Z,100628.09
2019-03-31T04:41:54.709Z,100626.17
2019-03-31T04:44:59.479Z,100618.33
2019-03-31T04:48:03.497Z,100624.44
2019-03-31T04:51:07.227Z,100624.62
2019-03-31T04:54:12.106Z,100633.60
2019-03-31T04:57:15.829Z,100638.38
2019-03-31T05:00:19.667Z,100633.70
2019-03-31T05:03:23.817Z,100640.59
2019-03-31T05:06:27.872Z,100644.11
2019-03-31T05:09:32.703Z,100635.31
2019-03-31T05:12:36.425Z,100650.08
2019-03-31T05:15:40.128Z,100652.34
2019-03-31T05:18:44.972Z,100653.39
2019-03-31T05:21:48.958Z,100656.59
2019-03-31T05:24:52.686Z,100659.25
2019-03-31T05:27:56.418Z,100668.41
2019-03-31T05:31:00.135Z,100666.73
2019-03-31T05:34:18.141Z,100663.51
2019-03-31T05:37:09.503Z,100663.76
2019-03-31T05:40:13.251Z,100672.34
2019-03-31T05:43:18.048Z,100679.17
2019-03-31T05:46:22.080Z,100690.08
2019-03-31T05:49:25.796Z,100686.30
2019-03-31T05:52:29.548Z,100687.09
2019-03-31T05:55:33.998Z,100688.75
2019-03-31T05:58:37.708Z,100698.53
2019-03-31T06:01:41.475Z,100706.27
2019-03-31T06:04:45.563Z,100702.28
2019-03-31T06:07:49.341Z,100705.72
2019-03-31T06:10:53.378Z,100702.20
2019-03-31T06:13:57.518Z,100699.62
2019-03-31T06:17:01.575Z,100709.80
2019-03-31T06:20:05.785Z,100707.00
2019-03-31T06:23:09.878Z,100718.55
2019-03-31T06:26:13.592Z,100715.27
2019-03-31T06:29:17.324Z,100704.75
2019-03-31T06:32:21.223Z,100715.37
2019-03-31T06:35:24.948Z,100728.36
2019-03-31T06:38:28.685Z,100730.92
2019-03-31T06:41:32.396Z,100734.28
2019-03-31T06:44:38.098Z,100741.53
2019-03-31T06:47:43.198Z,100749.13
2019-03-31T06:50:46.947Z,100751.19
2019-03-31T06:53:50.800Z,100750.45
2019-03-31T06:56:54.894Z,100755.30
2019-03-31T06:59:58.895Z,100766.09
2019-03-31T07:03:02.628Z,100771.05
2019-03-31T07:06:07.876Z,100779.37
2019-03-31T07:09:11.962Z,100782.27
2019-03-31T07:12:16.122Z,100783.66
2019-03-31T07:15:19.864Z,100786.20
2019-03-31T07:18:23.948Z,100788.73
2019-03-31T07:21:28.316Z,100803.25
2019-03-31T07:24:32.492Z,100803.22
2019-03-31T07:27:36.483Z,100803.34
2019-03-31T07:30:40.219Z,100804.43
2019-03-31T07:33:43.959Z,100804.95
2019-03-31T07:36:47.800Z,100807.09
2019-03-31T07:39:52.181Z,100815.25
2019-03-31T07:42:56.469Z,100816.28
2019-03-31T07:46:00.852Z,100814.92
2019-03-31T07:49:04.597Z,100815.63
2019-03-31T07:52:09.160Z,100814.18
2019-03-31T07:55:15.192Z,100819.06
2019-03-31T07:58:18.955Z,100827.73
2019-03-31T08:01:23.135Z,100823.80
2019-03-31T08:04:26.963Z,100828.50
2019-03-31T08:07:30.691Z,100837.80
2019-03-31T08:10:34.663Z,100837.45
2019-03-31T08:13:38.766Z,100843.18
2019-03-31T08:16:43.547Z,100844.95
2019-03-31T08:19:47.260Z,100842.12
2019-03-31T08:22:50.994Z,100830.80
2019-03-31T08:25:55.827Z,100825.19
2019-03-31T08:29:00.206Z,100833.75
2019-03-31T08:32:04.281Z,100829.94
2019-03-31T08:35:11.064Z,100836.23
2019-03-31T08:38:15.453Z,100842.22
2019-03-31T08:41:19.187Z,100844.07
2019-03-31T08:44:23.802Z,100851.20
2019-03-31T08:47:28.102Z,100851.42
2019-03-31T08:50:34.660Z,100859.55
2019-03-31T08:53:37.931Z,100866.65
2019-03-31T08:56:41.705Z,100873.09
2019-03-31T08:59:45.497Z,100866.65
2019-03-31T09:02:49.212Z,100869.77
2019-03-31T09:06:01.561Z,100870.19
2019-03-31T09:08:59.790Z,100870.58
2019-03-31T09:12:03.539Z,100864.95
2019-03-31T09:15:11.202Z,100880.24
2019-03-31T09:18:15.342Z,100878.65
2019-03-31T09:21:19.936Z,100890.46
2019-03-31T09:24:23.653Z,100884.42
2019-03-31T09:27:27.720Z,100886.27
2019-03-31T09:30:31.483Z,100884.34
2019-03-31T09:33:35.204Z,100887.03
2019-03-31T09:36:38.992Z,100891.31
2019-03-31T09:39:43.098Z,100889.36
2019-03-31T09:42:46.845Z,100900.74
2019-03-31T09:45:51.575Z,100904.63
2019-03-31T09:48:55.347Z,100902.18
2019-03-31T09:51:59.090Z,100899.28
2019-03-31T09:55:03.866Z,100901.27
2019-03-31T09:58:07.809Z,100907.30
2019-03-31T10:01:11.821Z,100916.00
2019-03-31T10:04:15.658Z,100915.11
2019-03-31T10:07:23.678Z,100911.52
2019-03-31T10:10:32.457Z,100910.42
2019-03-31T10:13:36.578Z,100911.31
2019-03-31T10:16:40.587Z,100907.30
2019-03-31T10:19:45.726Z,100901.35
2019-03-31T10:22:49.482Z,100909.31
2019-03-31T10:25:53.229Z,100910.09
2019-03-31T10:28:58.062Z,100913.58
2019-03-31T10:32:01.787Z,100919.02
2019-03-31T10:35:07.177Z,100923.86
2019-03-31T10:38:10.918Z,100916.95
2019-03-31T10:41:15.701Z,100917.12
2019-03-31T10:44:19.768Z,100922.27
2019-03-31T10:47:24.222Z,100924.38
2019-03-31T10:50:28.114Z,100923.67
2019-03-31T10:53:32.998Z,100931.99
2019-03-31T10:56:37.052Z,100925.43
2019-03-31T10:59:41.893Z,100929.81
2019-03-31T11:02:46.005Z,100930.25
2019-03-31T11:05:50.194Z,100927.98
2019-03-31T11:08:54.383Z,100928.03
2019-03-31T11:11:58.524Z,100925.02
2019-03-31T11:15:03.250Z,100923.60
2019-03-31T11:18:07.369Z,100921.28
2019-03-31T11:21:21.933Z,100924.80
2019-03-31T11:24:25.730Z,100919.38
2019-03-31T11:27:29.815Z,100912.84
2019-03-31T11:30:34.194Z,100911.94
2019-03-31T11:33:38.381Z,100917.14
2019-03-31T11:36:42.505Z,100920.75
2019-03-31T11:39:46.719Z,100919.20
2019-03-31T11:42:50.496Z,100917.56
2019-03-31T11:45:54.239Z,100916.17
2019-03-31T11:48:58.024Z,100919.72
2019-03-31T11:52:01.772Z,100912.56
2019-03-31T11:55:05.907Z,100907.77
2019-03-31T11:58:09.985Z,100910.98
2019-03-31T12:01:13.831Z,100912.53
2019-03-31T12:04:18.027Z,100913.09
2019-03-31T12:07:28.356Z,100908.72
2019-03-31T12:10:28.749Z,100910.95
2019-03-31T12:13:32.523Z,100912.81
2019-03-31T12:16:36.267Z,100916.42
2019-03-31T12:19:40.336Z,100912.53
2019-03-31T12:22:44.522Z,100908.67
2019-03-31T12:25:48.285Z,100900.24
2019-03-31T12:28:52.141Z,100902.90
2019-03-31T12:31:56.340Z,100897.88
2019-03-31T12:35:00.421Z,100903.28
2019-03-31T12:38:04.309Z,100905.62
2019-03-31T12:41:08.538Z,100901.09
2019-03-31T12:44:12.282Z,100901.69
2019-03-31T12:47:16.065Z,100898.97
2019-03-31T12:50:19.824Z,100913.84
2019-03-31T12:53:23.595Z,100910.40
2019-03-31T12:56:27.376Z,100896.80
2019-03-31T12:59:31.123Z,100895.58
2019-03-31T13:02:35.294Z,100892.33
2019-03-31T13:05:39.040Z,100896.66
2019-03-31T13:08:42.832Z,100889.13
2019-03-31T13:11:50.305Z,100894.94
2019-03-31T13:14:52.733Z,100892.22
2019-03-31T13:17:56.498Z,100881.17
2019-03-31T13:21:01.007Z,100895.55
2019-03-31T13:24:05.423Z,100884.16
2019-03-31T13:27:09.616Z,100890.22
2019-03-31T13:30:14.132Z,100887.72
2019-03-31T13:33:18.265Z,100884.69
2019-03-31T13:36:22.004Z,100877.72
2019-03-31T13:39:25.765Z,100878.78
2019-03-31T13:42:29.803Z,100881.83
2019-03-31T13:45:33.554Z,100878.70
2019-03-31T13:48:37.805Z,100880.80
2019-03-31T13:51:41.641Z,100877.59
2019-03-31T13:54:45.437Z,100870.22
2019-03-31T13:57:49.822Z,100867.86
2019-03-31T14:00:57.138Z,100866.03
2019-03-31T14:04:03.319Z,100864.48
2019-03-31T14:07:07.549Z,100868.86
2019-03-31T14:10:13.004Z,100866.92
2019-03-31T14:13:16.882Z,100856.33
2019-03-31T14:16:20.683Z,100861.02
2019-03-31T14:19:24.416Z,100853.27
2019-03-31T14:22:29.003Z,100854.91
2019-03-31T14:25:32.732Z,100861.70
2019-03-31T14:28:36.729Z,100854.17
2019-03-31T14:31:40.502Z,100855.27
2019-03-31T14:34:44.207Z,100852.36
2019-03-31T14:37:47.959Z,100850.48
2019-03-31T14:40:51.670Z,100848.94
2019-03-31T14:43:55.775Z,100844.77
2019-03-31T14:47:00.584Z,100846.19
2019-03-31T14:50:07.166Z,100850.67
2019-03-31T14:53:11.190Z,100852.00
2019-03-31T14:56:15.334Z,100855.03
2019-03-31T14:59:19.113Z,100852.79
2019-03-31T15:02:22.842Z,100853.00
2019-03-31T15:05:26.619Z,100844.77
2019-03-31T15:08:30.356Z,100839.71
2019-03-31T15:11:34.360Z,100838.37
2019-03-31T15:14:38.127Z,100843.64
2019-03-31T15:17:41.841Z,100845.88
2019-03-31T15:20:45.575Z,100847.86
2019-03-31T15:23:49.639Z,100840.95
2019-03-31T15:26:53.758Z,100846.16
2019-03-31T15:29:57.828Z,100852.32
2019-03-31T15:33:01.540Z,100847.97
2019-03-31T15:36:05.274Z,100844.56
2019-03-31T15:39:09.548Z,100841.95
2019-03-31T15:42:13.485Z,100841.95
2019-03-31T15:45:17.642Z,100844.52
2019-03-31T15:48:22.362Z,100852.20
2019-03-31T15:51:26.109Z,100852.48
2019-03-31T15:54:30.652Z,100848.03
2019-03-31T15:57:34.830Z,100847.91
2019-03-31T16:00:38.550Z,100851.30
2019-03-31T16:03:42.351Z,100853.59
2019-03-31T16:06:46.387Z,100847.05
2019-03-31T16:09:49.283Z,100844.14
2019-03-31T16:12:52.546Z,100844.05
2019-03-31T16:15:55.472Z,100844.39
2019-03-31T16:18:59.471Z,100843.63
2019-03-31T16:22:02.774Z,100839.38
2019-03-31T16:25:12.455Z,100846.34
2019-03-31T16:28:15.744Z,100845.44
2019-03-31T16:31:19.747Z,100844.19
2019-03-31T16:34:22.667Z,100830.52
2019-03-31T16:37:25.588Z,100833.52
2019-03-31T16:40:28.490Z,100835.03
2019-03-31T16:43:31.770Z,100838.25
2019-03-31T16:46:34.701Z,100827.73
2019-03-31T16:49:38.043Z,100835.34
2019-03-31T16:52:41.870Z,100835.95
2019-03-31T16:55:44.779Z,100834.46
2019-03-31T16:58:48.044Z,100828.59
2019-03-31T17:01:51.319Z,100828.20
2019-03-31T17:04:54.242Z,100834.52
2019-03-31T17:07:58.249Z,100832.12
2019-03-31T17:11:01.511Z,100835.12
2019-03-31T17:14:04.744Z,100833.75
2019-03-31T17:17:07.659Z,100843.03
2019-03-31T17:20:11.835Z,100836.05
2019-03-31T17:23:14.938Z,100840.53
2019-03-31T17:26:17.862Z,100840.63
2019-03-31T17:29:20.760Z,100848.27
2019-03-31T17:32:23.685Z,100843.59
2019-03-31T17:35:26.962Z,100844.63
2019-03-31T17:38:30.191Z,100837.96
2019-03-31T17:41:33.497Z,100849.64
2019-03-31T17:44:36.398Z,100842.33
2019-03-31T17:47:39.357Z,100848.67
2019-03-31T17:50:42.307Z,100844.47
2019-03-31T17:53:45.227Z,100849.02
2019-03-31T17:56:48.821Z,100850.11
2019-03-31T17:59:51.721Z,100853.59
2019-03-31T18:02:55.000Z,100848.65
2019-03-31T18:05:58.272Z,100853.28
2019-03-31T18:09:01.191Z,100857.01
2019-03-31T18:12:05.518Z,100857.68
2019-03-31T18:15:08.742Z,100858.94
2019-03-31T18:18:11.675Z,100861.31
2019-03-31T18:21:15.292Z,100868.15
2019-03-31T18:24:18.200Z,100863.58
2019-03-31T18:27:21.478Z,100871.01
2019-03-31T18:30:24.375Z,100874.61
2019-03-31T18:33:27.304Z,100869.91
2019-03-31T18:36:36.303Z,100877.13
2019-03-31T18:39:35.165Z,100880.03
2019-03-31T18:42:38.554Z,100880.92
2019-03-31T18:45:41.445Z,100890.27
2019-03-31T18:48:44.415Z,100893.74
2019-03-31T18:51:48.039Z,100895.58
2019-03-31T18:54:58.659Z,100897.78
2019-03-31T18:58:08.660Z,100906.47
2019-03-31T19:01:20.541Z,100906.86
2019-03-31T19:04:41.577Z,100907.12
2019-03-31T19:08:03.356Z,100913.23
2019-03-31T19:11:28.040Z,100909.75
2019-03-31T19:14:49.178Z,100909.00
2019-03-31T19:18:14.872Z,100918.77
2019-03-31T19:21:36.219Z,100913.26
2019-03-31T19:25:04.914Z,100922.48
2019-03-31T19:28:39.981Z,100925.18
2019-03-31T19:32:11.952Z,100924.84
2019-03-31T19:35:33.635Z,100927.97
2019-03-31T19:38:59.215Z,100921.80
2019-03-31T19:42:20.443Z,100924.87
2019-03-31T19:45:52.354Z,100932.52
2019-03-31T19:49:13.056Z,100930.36
2019-03-31T19:52:35.172Z,100935.73
2019-03-31T19:55:51.496Z,100927.67
2019-03-31T19:59:23.561Z,100940.14
2019-03-31T20:02:36.770Z,100940.22
2019-03-31T20:05:53.939Z,100937.02
2019-03-31T20:09:17.712Z,100937.46
2019-03-31T20:12:27.360Z,100948.84
2019-03-31T20:16:09.027Z,100945.35
2019-03-31T20:19:41.210Z,100946.75
2019-03-31T20:23:22.291Z,100946.64
2019-03-31T20:26:47.843Z,100951.64
2019-03-31T20:30:08.992Z,100953.41
2019-03-31T20:33:35.246Z,100956.63
2019-03-31T20:36:56.626Z,100958.01
2019-03-31T20:40:10.690Z,100953.08
2019-03-31T20:43:49.411Z,100959.33
2019-03-31T20:46:53.103Z,100969.93
2019-03-31T20:49:56.310Z,100963.77
2019-03-31T20:52:59.678Z,100957.16
2019-03-31T20:56:02.594Z,100966.02
2019-03-31T20:59:05.614Z,100969.63
2019-03-31T21:02:08.538Z,100974.45
2019-03-31T21:05:11.455Z,100972.11
2019-03-31T21:08:14.408Z,100962.41
2019-03-31T21:11:17.588Z,100969.05
2019-03-31T21:14:20.934Z,100975.35
2019-03-31T21:17:23.831Z,100974.46
2019-03-31T21:20:26.767Z,100970.86
2019-03-31T21:23:29.709Z,100977.07
2019-03-31T21:26:33.005Z,100976.56
2019-03-31T21:29:36.182Z,100979.23
2019-03-31T21:32:39.071Z,100983.70
2019-03-31T21:35:41.995Z,100985.02
2019-03-31T21:38:45.048Z,100985.45
2019-03-31T21:41:48.299Z,100987.62
2019-03-31T21:44:51.219Z,100986.70
2019-03-31T21:47:54.108Z,100988.13
2019-03-31T21:50:57.053Z,100990.72
2019-03-31T21:54:00.279Z,100994.72
2019-03-31T21:57:03.519Z,100994.32
2019-03-31T22:00:07.879Z,101000.00
2019-03-31T22:03:13.069Z,100997.33
2019-03-31T22:06:16.084Z,101002.09
2019-03-31T22:09:18.996Z,101007.44
2019-03-31T22:12:21.917Z,100999.49
2019-03-31T22:15:25.167Z,101003.98
2019-03-31T22:18:28.427Z,101006.62
2019-03-31T22:21:31.350Z,100998.28
2019-03-31T22:24:34.364Z,100999.19
2019-03-31T22:27:37.386Z,100993.94
2019-03-31T22:30:40.286Z,100999.60
2019-03-31T22:33:43.202Z,100993.92
2019-03-31T22:36:46.438Z,100997.39
2019-03-31T22:39:49.342Z,100996.42
2019-03-31T22:42:52.270Z,100995.10
2019-03-31T22:45:55.468Z,100990.22
2019-03-31T22:48:59.069Z,100996.02
2019-03-31T22:52:01.997Z,100989.42
2019-03-31T22:55:05.188Z,100983.34
2019-03-31T22:58:08.103Z,100980.73
2019-03-31T23:01:12.760Z,100982.44
2019-03-31T23:04:16.153Z,100980.75
2019-03-31T23:07:19.118Z,100978.97
2019-03-31T23:10:23.316Z,100978.97
2019-03-31T23:13:26.559Z,100981.61
2019-03-31T23:16:29.458Z,100979.86
2019-03-31T23:19:32.818Z,100967.08
2019-03-31T23:22:36.055Z,100973.28
2019-03-31T23:25:38.970Z,100975.91
2019-03-31T23:28:48.124Z,100970.64
2019-03-31T23:31:51.016Z,100970.19
2019-03-31T23:34:54.598Z,100971.89
2019-03-31T23:37:57.500Z,100967.55
2019-03-31T23:41:00.415Z,100967.02
2019-03-31T23:44:03.343Z,100964.81
2019-03-31T23:47:06.232Z,100959.15
2019-03-31T23:50:09.168Z,100956.88
2019-03-31T23:53:12.185Z,100953.38
2019-03-31T23:56:15.459Z,100953.42
2019-03-31T23:59:19.391Z,100954.25
